Ride Results

Williams Valley Endurance Ride (14-03-2015)
Ride distance: 80.0 km

Outcomes - Williams Valley Endurance Ride (14-03-2015)
Division No. of Entries Retired / DNE Completed Withdrawn Ineligible V/O Percentage Completed
HW 15 - 8 1 1 5 53.33%
MW 25 - 19 2 2 2 76.00%
LW 16 - 12 2 - 2 75.00%
JN 6 - 4 - - 2 66.67%
Totals 62 - 43 5 3 11 69.35%
Results - Williams Valley Endurance Ride (14-03-2015)
No. Rider Horse Place Time Leg Speeds Total
Km/Hr
H/R bpm
Heavyweight
13 Thomas Hermann TTH Headliner 1 (BC) 7:17:00 11.9, 10.1 10.98 31, 42, 48 (Avg:45)
30 Nigel Colefax Inshallah Echo's Flight 2 7:39:00 10.6, 10.2 10.46 48, 43, 49 (Avg:46)
4 Steve Broadbent Glendhu Moonshine 3 8:33:00 10.6, 8.3 9.36 34, 52, 41 (Avg:46)
12 Jack Johnson Sharahd Namaree 4 8:56:00 9.7, 8.2 8.96 36, 44, 48 (Avg:46)
46 Jolene Cole Kurrajong Bazinga 5 8:58:00 10.4, 7.7 8.92 37, 42, 52 (Avg:47)
59 Phil Coleman Rainbows Reach Dark N Stormy 6 9:24:00 9.2, 7.8 8.51 40, 42, 48 (Avg:45)
19 Keith Sumpner Fonda 7 9:34:00 9.4, 7.4 8.36 42, 48, 60 (Avg:54)
1 Jody Harrison Phoenix 8 9:56:00 9.4, 7.0 8.05 42, 45, 49 (Avg:47)
40 Con Bouzianis Conderosa Millenium Silver Lame L2 0:00:00 12.4, 11.0 - 49, 45, 47 (Avg:46)
55 Ian Dreghorn Ausden Nile Prins Heart Rate L2 0:00:00 8.1, 6.7 - 38, 48, 72 (Avg:60)
47 Chris Geddes Baribo Lame L2 0:00:00 10.4, 7.7 - 39, 46, 48 (Avg:47)
43 Tangil Kinch Kim-Dande Shatahli Lame L2 0:00:00 9.7, 8.6 - 34, 36, 40 (Avg:38)
36 Anthony Parker Coolahlee Park Samba Out of Time L2 0:00:00 8.1, 6.7 - 42, 44, 53 (Avg:48)
2 Gabriel Wood Clovelly Park Samson Lame L2 0:00:00 9.6, 17.0 - 36, 44, 52 (Avg:48)
8 Allan Caslick A'Landell Prestige Withdrawn L1 0:00:00 - - 42, 42 (Avg:42)
Middleweight
41 Emily Streckfuss Webbs Creek Starlight 1 (BC) 6:50:00 12.3, 11.1 11.71 34, 40, 54 (Avg:47)
11 Nicole Smith Skittles 2 7:19:00 11.2, 10.6 10.93 32, 41, 52 (Avg:46)
27 Georgia Curry Mountain Breeze Mingha 3 7:35:00 10.0, 11.0 10.55 33, 40, 44 (Avg:42)
15 Debbie Pevy Just Cruzin 4 7:39:00 10.6, 10.2 10.46 40, 42, 50 (Avg:46)
38 Jennifer Gilbertson Windaroo Devina Glamour 5 7:41:00 10.2, 10.6 10.41 41, 47, 39 (Avg:43)
18 Sharon Foster Sharabel Maleka 6 7:44:00 11.3, 9.5 10.34 42, 43, 48 (Avg:45)
17 Christopher Schofield Bradali Ice N Rain 6 7:44:00 11.3, 9.5 10.34 40, 43, 53 (Avg:48)
53 Alex Baczocha Ralvon Secret 8 8:01:00 11.2, 8.9 9.98 41, 45, 57 (Avg:51)
20 Pamela Karner Garonne Park Diva 9 8:03:00 10.6, 9.3 9.94 37, 44, 45 (Avg:44)
3 Terry Wood Tallawarra Chance 10 8:44:00 9.7, 8.6 9.16 38, 46, 49 (Avg:47)
33 Peter Bice Georgie Girl 11 8:45:00 10.3, 8.1 9.14 34, 41, 56 (Avg:48)
56 Sonya Ruprecht Alex-Ville God Be Gift 12 8:52:00 9.5, 8.5 9.02 30, 36, 59 (Avg:47)
58 Kayte Barnard Matta Mia L'Atim 13 8:56:00 9.0, 8.8 8.96 35, 44, 53 (Avg:48)
42 Johanne Gardiner Coolinda Park Xzinda-Ella 14 8:59:00 9.2, 8.5 8.91 33, 40, 43 (Avg:41)
5 Carol Major Anijoa Anna 15 9:15:00 9.1, 8.1 8.65 26, 38, 42 (Avg:40)
37 Allana Rempel Ralvon Milarna 15 9:15:00 9.1, 8.1 8.65 33, 41, 44 (Avg:42)
7 Jennifer Caslick Sienna Kaptivating 17 9:34:00 8.6, 8.1 8.36 33, 38, 47 (Avg:42)
9 Madeline Cotton A'Landell Charlie 17 9:34:00 8.6, 8.1 8.36 34, 40, 43 (Avg:41)
24 Dieter Schuelein Shiraz 19 9:38:00 9.0, 7.6 8.30 38, 45, 43 (Avg:44)
22 Margaret Boland Rosebrae Cameo Out of Time L2 0:00:00 8.1, 6.7 - 33, 41, 43 (Avg:42)
23 Michael Boland Rosebrae Amber Out of Time L2 0:00:00 8.1, 6.7 - 40, 45, 54 (Avg:49)
49 Jo Davis Wicketly Good Metabolics moderate L2 0:00:00 12.4, 7.8 - 31, 48, 42 (Avg:45)
54 Peter Kelly Ramalea Laila Withdrawn L2 0:00:00 - - 32, 44, 36 (Avg:40)
6 Karen Anderson Malleegrove Samsara Lame L1 0:00:00 12.2 - 29, 45 (Avg:45)
52 Katrina Bodewes Booramby Silver Elk Withdrawn L1 0:00:00 - - 39, 47 (Avg:47)
Lightweight
48 Shannen Thorsby Kamikaze Jacob 1 (BC) 8:00:00 10.9, 9.2 10.00 48, 48, 52 (Avg:50)
50 Ann English Makhtar 2 8:31:00 10.2, 8.6 9.39 39, 51, 46 (Avg:48)
34 Victoria Bice The Byzantine Diamonds 3 8:45:00 10.3, 8.1 9.14 35, 45, 54 (Avg:49)
35 Shannon Hill Burren-dah Narla 4 9:15:00 9.1, 8.2 8.65 36, 42, 52 (Avg:47)
10 Sue Todd Shalacey Bear 4 9:15:00 9.1, 8.1 8.65 34, 44, 45 (Avg:44)
44 Jen Clingly Omani City Smoke 6 9:22:00 10.4, 7.2 8.54 34, 42, 48 (Avg:45)
45 Carol Layton Omani Mr Sqiggle 6 9:22:00 10.4, 7.2 8.54 40, 45, 47 (Avg:46)
57 Ros Ryan Rainbows Reach Scout 8 9:24:00 9.2, 7.8 8.51 30, 39, 42 (Avg:40)
32 Elizabeth Moir Kenya s Gold 9 9:25:00 9.1, 7.8 8.50 30, 38, 50 (Avg:44)
62 Amanda Myers Grattai Station Traveller 10 9:29:00 8.9, 7.9 8.44 36, 44, 44 (Avg:44)
26 Jan Wade Hillville Amigo 11 9:34:00 9.4, 7.4 8.36 36, 38, 40 (Avg:39)
25 Renee Schneider Badia Just Rosie 12 9:38:00 9.0, 7.6 8.30 36, 41, 44 (Avg:42)
39 Antonia Somerville Kiljora Park Amir Illusion Heart Rate L2 0:00:00 9.2, 8.5 - 42, 50, 65 (Avg:57)
51 Jade Hodson Rush Creek Gift Withdrawn L1 0:00:00 - - 34, 52 (Avg:52)
61 Mary Hollingsworth Wickwood Park Domino Lame L1 0:00:00 9.0 - 40, 46 (Avg:46)
60 Karen Parker Henley Farm Hunaak Withdrawn L1 0:00:00 - - 42, 44 (Avg:44)
Junior
16 Isabel Foster Sharabel Kalarney 1 (BC) 7:44:00 11.3, 9.5 10.34 38, 42, 51 (Avg:46)
31 Josephine Jansen Zulu's Dark Angel 2 8:32:00 10.2, 8.6 9.38 42, 41, 46 (Avg:43)
28 Makayla Circosta Ropa Park Bella Rastique 3 9:29:00 8.9, 7.9 8.44 36, 46, 54 (Avg:50)
29 Isabella Circosta Ropa Park Bella Shakila 3 9:29:00 8.9, 7.9 8.44 36, 39, 42 (Avg:40)
21 Adele Gifford Porcelyn Bey Lame L2 0:00:00 9.2, 8.8 - 41, 46, 60 (Avg:53)
14 Tomeika Bond-Pevy Regal Buddie Heart Rate L1 0:00:00 10.6 - 42, 58 (Avg:58)